General Aviation Weather

Text Reports

Enter one or more of the following location identifiers separated by a space:

Zip Code, Four-Character ICAO or Three-Character IATA airport codes.

METAR - Aviation Routine Weather Report
KJYO - Leesburg, Virginia
Updated at 10:15 PM GMT on March 05, 2015 (5:15 PM EST):
METAR KJYO 052215Z AUTO 35009KT 4SM BR SCT012 SCT019 OVC045 M03/M04 A3027 RMK AO2
TAF - Terminal Area Forecast
KJYO - Leesburg, Virginia
Updated at 10:15 PM GMT on March 05, 2015 (5:15 PM EST):
No TAF is currently available for this location.
Decoded:
No decoded TAF is available.
PIREP - Pilot Weather Report
KJYO - Leesburg, Virginia
Updated at 10:15 PM GMT on March 05, 2015 (5:15 PM EST):
No PIREP is currently available for this location.
AIRMET - Airmens Meteorological Information
KJYO - Leesburg, Virginia
Updated at 10:15 PM GMT on March 05, 2015 (5:15 PM EST):
No AIRMET is currently available for this location.
SIGMET - Significant Meteorological Information
KJYO - Leesburg, Virginia
Updated at 10:15 PM GMT on March 05, 2015 (5:15 PM EST):
No SIGMET is currently available for this location.
NOTAM - Notice to Airmen
KJYO - Leesburg, Virginia
Updated at 10:15 PM GMT on March 05, 2015 (5:15 PM EST):
No NOTAM is currently available for this location.
Forecast Area
KJYO - Leesburg, Virginia
Updated at 10:15 PM GMT on March 05, 2015 (5:15 PM EST):
No NOTAM is currently available for this location.
Aviation Weather Maps